createdAt,value
2023-05-14T00:00:12.374Z,0.0000
2023-05-14T00:01:13.148Z,0.0000
2023-05-14T00:02:13.849Z,0.0000
2023-05-14T00:03:16.053Z,0.0000
2023-05-14T00:04:16.231Z,0.0000
2023-05-14T00:05:16.911Z,0.0000
2023-05-14T00:06:16.933Z,0.0000
2023-05-14T00:07:17.592Z,0.0000
2023-05-14T00:08:18.297Z,0.0000
2023-05-14T00:10:18.542Z,0.0000
2023-05-14T00:11:18.551Z,0.0000
2023-05-14T00:12:18.603Z,0.0000
2023-05-14T00:13:18.634Z,0.0000
2023-05-14T00:15:19.474Z,0.0000
2023-05-14T00:16:19.558Z,0.0000
2023-05-14T00:18:20.520Z,0.0000
2023-05-14T00:19:41.551Z,0.0000
2023-05-14T00:20:23.020Z,0.0000
2023-05-14T00:21:23.943Z,0.0000
2023-05-14T00:22:24.582Z,0.0000
2023-05-14T00:23:24.636Z,0.0000
2023-05-14T00:24:25.314Z,0.0000
2023-05-14T00:25:25.372Z,0.0000
2023-05-14T00:26:25.401Z,0.0000
2023-05-14T00:27:26.033Z,0.0000
2023-05-14T00:28:26.078Z,0.0000
2023-05-14T00:29:26.121Z,0.0000
2023-05-14T00:30:26.190Z,0.0000
2023-05-14T00:31:26.883Z,0.0000
2023-05-14T00:32:26.914Z,0.0000
2023-05-14T00:33:27.767Z,0.0000
2023-05-14T00:34:28.450Z,0.0000
2023-05-14T00:35:28.484Z,0.0000
2023-05-14T00:36:29.073Z,0.0000
2023-05-14T00:37:30.061Z,0.0000
2023-05-14T00:38:30.090Z,0.0000
2023-05-14T00:39:30.891Z,0.0000
2023-05-14T00:40:31.988Z,0.0000
2023-05-14T00:41:32.053Z,0.0000
2023-05-14T00:42:32.697Z,0.0000
2023-05-14T00:43:33.650Z,0.0000
2023-05-14T00:45:36.901Z,0.0000
2023-05-14T00:46:37.883Z,0.0000
2023-05-14T00:47:37.947Z,0.0000
2023-05-14T00:48:38.767Z,0.0000
2023-05-14T00:49:38.742Z,0.0000
2023-05-14T00:50:39.472Z,0.0000
2023-05-14T00:51:40.612Z,0.0000
2023-05-14T00:52:41.344Z,0.0000
2023-05-14T00:53:41.404Z,0.0000
2023-05-14T00:54:41.430Z,0.0000
2023-05-14T00:55:41.495Z,0.0000
2023-05-14T00:56:42.077Z,0.0000
2023-05-14T00:57:43.029Z,0.0000
2023-05-14T00:58:43.061Z,0.0000
2023-05-14T00:59:43.138Z,0.0000
2023-05-14T01:00:43.267Z,0.0000
2023-05-14T01:01:43.957Z,0.0000
2023-05-14T01:02:44.065Z,0.0000
2023-05-14T01:03:44.245Z,0.0000
2023-05-14T01:04:44.968Z,0.0000
2023-05-14T01:05:44.985Z,0.0000
2023-05-14T01:06:45.664Z,0.0000
2023-05-14T01:07:46.334Z,0.0000
2023-05-14T01:08:47.057Z,0.0000
2023-05-14T01:09:47.101Z,0.0000
2023-05-14T01:10:47.155Z,0.0000
2023-05-14T01:11:47.864Z,0.0000
2023-05-14T01:12:47.908Z,0.0000
2023-05-14T01:13:48.993Z,0.0000
2023-05-14T01:14:49.930Z,0.0000
2023-05-14T01:15:49.954Z,0.0000
2023-05-14T01:16:50.081Z,0.0000
2023-05-14T01:17:50.158Z,0.0000
2023-05-14T01:18:50.266Z,0.0000
2023-05-14T01:19:50.341Z,0.0000
2023-05-14T01:20:50.384Z,0.0000
2023-05-14T01:21:50.427Z,0.0000
2023-05-14T01:22:50.452Z,0.0000
2023-05-14T01:23:50.523Z,0.0000
2023-05-14T01:24:50.558Z,0.0000
2023-05-14T01:25:50.578Z,0.0000
2023-05-14T01:26:50.626Z,0.0000
2023-05-14T01:27:51.006Z,0.0000
2023-05-14T01:28:51.104Z,0.0000
2023-05-14T01:29:51.114Z,0.0000
2023-05-14T01:30:51.774Z,0.0000
2023-05-14T01:31:51.833Z,0.0000
2023-05-14T01:32:52.482Z,0.0000
2023-05-14T01:33:53.307Z,0.0000
2023-05-14T01:34:53.612Z,0.0000
2023-05-14T01:35:54.356Z,0.0000
2023-05-14T01:36:54.699Z,0.0000
2023-05-14T01:37:54.739Z,0.0000
2023-05-14T01:38:55.926Z,0.0000
2023-05-14T01:39:55.998Z,0.0000
2023-05-14T01:40:56.426Z,0.0000
2023-05-14T01:41:57.187Z,0.0000
2023-05-14T01:42:57.253Z,0.0000
2023-05-14T01:43:58.066Z,0.0000
2023-05-14T01:44:58.764Z,0.0000
2023-05-14T01:45:58.816Z,0.0000
2023-05-14T01:46:59.492Z,0.0000
2023-05-14T01:48:00.796Z,0.0000
2023-05-14T01:49:00.856Z,0.0000
2023-05-14T01:50:01.491Z,0.0000
2023-05-14T01:51:01.692Z,0.0000
2023-05-14T01:53:02.982Z,0.0000
2023-05-14T01:54:03.008Z,0.0000
2023-05-14T01:55:03.691Z,0.0000
2023-05-14T01:56:04.302Z,0.0000
2023-05-14T01:57:05.063Z,0.0000
2023-05-14T01:58:06.556Z,0.0000
2023-05-14T01:59:06.597Z,0.0000
2023-05-14T02:00:07.258Z,0.0000
2023-05-14T02:01:08.603Z,0.0000
2023-05-14T02:07:13.546Z,0.0000
2023-05-14T02:08:13.583Z,0.0000
2023-05-14T02:09:13.612Z,0.0000
2023-05-14T02:10:14.243Z,0.0000
2023-05-14T02:11:14.280Z,0.0000
2023-05-14T02:13:15.142Z,0.0000
2023-05-14T02:14:16.276Z,0.0000
2023-05-14T02:19:23.936Z,0.0000
2023-05-14T02:20:24.624Z,0.0000
2023-05-14T02:21:25.189Z,0.0000
2023-05-14T02:22:26.039Z,0.0000
2023-05-14T02:23:37.983Z,0.0000
2023-05-14T02:24:26.703Z,0.0000
2023-05-14T02:25:27.548Z,0.0000
2023-05-14T02:26:28.218Z,0.0000
2023-05-14T02:27:28.671Z,0.0000
2023-05-14T02:28:29.322Z,0.0000
2023-05-14T02:29:29.424Z,0.0000
2023-05-14T02:30:29.817Z,0.0000
2023-05-14T02:31:30.898Z,0.0000
2023-05-14T02:32:31.250Z,0.0000
2023-05-14T02:33:32.452Z,0.0000
2023-05-14T02:34:33.484Z,0.0000
2023-05-14T02:35:33.559Z,0.0000
2023-05-14T02:36:34.404Z,0.0000
2023-05-14T02:37:35.630Z,0.0000
2023-05-14T02:38:35.692Z,0.0000
2023-05-14T02:39:36.361Z,0.0000
2023-05-14T02:40:36.504Z,0.0000
2023-05-14T02:41:37.933Z,0.0000
2023-05-14T02:42:38.856Z,0.0000
2023-05-14T02:43:38.911Z,0.0000
2023-05-14T02:44:40.416Z,0.0000
2023-05-14T02:45:41.169Z,0.0000
2023-05-14T02:46:41.616Z,0.0000
2023-05-14T02:47:42.607Z,0.0000
2023-05-14T02:48:43.785Z,0.0000
2023-05-14T02:49:43.835Z,0.0000
2023-05-14T02:50:44.703Z,0.0000
2023-05-14T02:51:44.968Z,0.0000
2023-05-14T02:52:45.109Z,0.0000
2023-05-14T02:53:45.344Z,0.0000
2023-05-14T02:54:46.420Z,0.0000
2023-05-14T02:55:46.513Z,0.0000
2023-05-14T02:56:47.375Z,0.0000
2023-05-14T02:57:47.633Z,0.0000
2023-05-14T02:59:48.268Z,0.0000
2023-05-14T03:00:48.854Z,0.0000
2023-05-14T03:01:50.400Z,0.0000
2023-05-14T03:02:51.124Z,0.0000
2023-05-14T03:03:51.883Z,0.0000
2023-05-14T03:04:52.717Z,0.0000
2023-05-14T03:05:52.927Z,0.0000
2023-05-14T03:06:53.575Z,0.0000
2023-05-14T03:07:54.526Z,0.0000
2023-05-14T03:08:54.754Z,0.0000
2023-05-14T03:09:55.512Z,0.0000
2023-05-14T03:10:56.327Z,0.0000
2023-05-14T03:11:56.779Z,0.0000
2023-05-14T03:12:57.638Z,0.0000
2023-05-14T03:13:57.693Z,0.0000
2023-05-14T03:14:58.998Z,0.0000
2023-05-14T03:15:59.939Z,0.0000
2023-05-14T03:17:00.841Z,2.7273
2023-05-14T03:18:01.123Z,4.0000
2023-05-14T03:19:01.322Z,3.6364
2023-05-14T03:20:01.968Z,0.0000
2023-05-14T03:21:02.824Z,3.4545
2023-05-14T03:22:02.882Z,4.0000
2023-05-14T03:23:03.139Z,4.3636
2023-05-14T03:24:03.375Z,4.0000
2023-05-14T03:25:04.249Z,6.1818
2023-05-14T03:26:04.576Z,6.7273
2023-05-14T03:27:04.638Z,7.2727
2023-05-14T03:28:05.461Z,9.0909
2023-05-14T03:29:05.516Z,10.5455
2023-05-14T03:30:06.770Z,11.6364
2023-05-14T03:31:07.569Z,14.3636
2023-05-14T03:32:08.279Z,16.9091
2023-05-14T03:33:09.108Z,19.4545
2023-05-14T03:34:09.205Z,22.9091
2023-05-14T03:35:10.782Z,26.9091
2023-05-14T03:36:11.754Z,31.4545
2023-05-14T03:38:13.236Z,42.3636
2023-05-14T03:39:13.713Z,49.2727
2023-05-14T03:40:14.969Z,56.1818
2023-05-14T03:41:16.007Z,64.5455
2023-05-14T03:42:16.889Z,73.2727
2023-05-14T03:43:17.005Z,82.9091
2023-05-14T03:44:17.965Z,92.9091
2023-05-14T03:45:19.574Z,104.1818
2023-05-14T03:46:21.521Z,115.8182
2023-05-14T03:48:25.359Z,139.8261
2023-05-14T03:49:25.491Z,153.6364
2023-05-14T03:50:26.347Z,168.7273
2023-05-14T03:51:27.113Z,185.2727
2023-05-14T03:52:27.155Z,203.0909
2023-05-14T03:53:27.887Z,221.0909
2023-05-14T03:54:28.499Z,241.0909
2023-05-14T03:55:28.603Z,263.4546
2023-05-14T03:56:29.768Z,286.7273
2023-05-14T03:57:30.411Z,311.0909
2023-05-14T03:58:30.501Z,336.7273
2023-05-14T03:59:31.841Z,362.7273
2023-05-14T04:00:32.932Z,391.4546
2023-05-14T04:01:32.999Z,420.1818
2023-05-14T04:02:33.805Z,446.5454
2023-05-14T04:03:34.094Z,473.8182
2023-05-14T04:04:35.447Z,504.7273
2023-05-14T04:05:35.554Z,540.1818
2023-05-14T04:06:35.624Z,572.3636
2023-05-14T04:07:36.405Z,608.9091
2023-05-14T04:08:37.237Z,647.2727
2023-05-14T04:09:37.961Z,687.0909
2023-05-14T04:10:38.071Z,724.7273
2023-05-14T04:11:38.145Z,763.6364
2023-05-14T04:12:38.906Z,803.2727
2023-05-14T04:13:39.461Z,835.2727
2023-05-14T04:14:39.553Z,850.7273
2023-05-14T04:15:40.558Z,850.5455
2023-05-14T04:16:40.750Z,846.9091
2023-05-14T04:17:41.249Z,849.4545
2023-05-14T04:18:41.984Z,872.3636
2023-05-14T04:19:42.738Z,924.5455
2023-05-14T04:25:47.636Z,1288.7273
2023-05-14T04:26:48.467Z,1311.6364
2023-05-14T04:27:49.145Z,1318.9091
2023-05-14T04:28:49.227Z,1334.1818
2023-05-14T04:29:49.953Z,1363.2727
2023-05-14T04:30:50.850Z,1380.0000
2023-05-14T04:31:50.962Z,1396.3636
2023-05-14T04:32:51.697Z,1433.4546
2023-05-14T04:33:51.778Z,1470.3636
2023-05-14T04:34:52.458Z,1513.2727
2023-05-14T04:35:52.596Z,1566.0000
2023-05-14T04:36:53.346Z,1615.8182
2023-05-14T04:37:54.193Z,1647.6364
2023-05-14T04:38:54.843Z,1689.6364
2023-05-14T04:39:55.730Z,1718.1818
2023-05-14T04:40:56.475Z,1718.5454
2023-05-14T04:41:56.571Z,1689.2727
2023-05-14T04:42:57.249Z,1662.9091
2023-05-14T04:43:57.932Z,1613.2727
2023-05-14T04:44:57.994Z,1550.9091
2023-05-14T04:45:58.962Z,1521.6364
2023-05-14T04:46:59.714Z,1550.0000
2023-05-14T04:47:59.836Z,1649.2727
2023-05-14T04:49:00.611Z,1789.0909
2023-05-14T04:50:00.689Z,1958.5454
2023-05-14T04:57:07.497Z,3740.3479
2023-05-14T04:58:07.625Z,4002.7273
2023-05-14T04:59:07.959Z,4170.1816
2023-05-14T05:00:08.060Z,4283.6362
2023-05-14T05:01:08.251Z,4265.4546
2023-05-14T05:02:08.322Z,4375.0908
2023-05-14T05:03:09.086Z,4544.7271
2023-05-14T05:04:09.358Z,4526.3638
2023-05-14T05:05:09.941Z,4462.0000
2023-05-14T05:06:10.905Z,4385.2729
2023-05-14T05:07:10.978Z,4369.0908
2023-05-14T05:08:11.745Z,4426.5454
2023-05-14T05:09:12.523Z,4547.2729
2023-05-14T05:11:16.133Z,4693.3911
2023-05-14T05:12:16.897Z,4788.0000
2023-05-14T05:13:18.267Z,4859.4546
2023-05-14T05:14:18.356Z,4880.7271
2023-05-14T05:15:18.419Z,4859.6362
2023-05-14T05:16:18.694Z,4850.0000
2023-05-14T05:17:18.789Z,4835.0908
2023-05-14T05:18:18.878Z,4806.3638
2023-05-14T05:19:20.844Z,4818.3638
2023-05-14T05:20:19.797Z,4843.4287
2023-05-14T05:21:20.363Z,4809.6362
2023-05-14T05:22:20.420Z,4780.0000
2023-05-14T05:23:21.645Z,4818.7271
2023-05-14T05:24:22.382Z,4976.0000
2023-05-14T05:25:23.776Z,5167.2729
2023-05-14T05:26:23.842Z,5373.8184
2023-05-14T05:27:24.542Z,5450.0000
2023-05-14T05:28:24.709Z,5315.8184
2023-05-14T05:29:25.373Z,5072.3638
2023-05-14T05:30:26.254Z,4881.8184
2023-05-14T05:31:26.457Z,4852.7271
2023-05-14T05:32:27.234Z,4998.7271
2023-05-14T05:33:27.286Z,5333.4546
2023-05-14T05:34:28.075Z,5914.7271
2023-05-14T05:35:28.973Z,6580.1816
2023-05-14T05:36:29.079Z,7290.3638
2023-05-14T05:37:30.087Z,7556.5454
2023-05-14T05:38:30.189Z,7203.8184
2023-05-14T05:39:30.266Z,6562.3638
2023-05-14T05:40:30.402Z,5894.0000
2023-05-14T05:41:30.460Z,5357.4546
2023-05-14T05:42:30.866Z,4962.3638
2023-05-14T05:43:31.000Z,4797.0908
2023-05-14T05:44:31.107Z,4827.2729
2023-05-14T05:45:31.793Z,4986.7271
2023-05-14T05:46:31.950Z,5316.1816
2023-05-14T05:47:32.654Z,5816.3638
2023-05-14T05:48:33.309Z,6459.4546
2023-05-14T05:49:33.599Z,7091.4546
2023-05-14T05:50:34.329Z,7932.5454
2023-05-14T05:51:35.070Z,8828.3633
2023-05-14T05:52:35.777Z,9622.3633
2023-05-14T05:53:35.865Z,9930.0000
2023-05-14T05:54:36.627Z,10268.5459
2023-05-14T05:55:37.468Z,10567.6367
2023-05-14T05:56:37.553Z,10796.9092
2023-05-14T05:57:37.641Z,11092.9092
2023-05-14T05:58:37.980Z,11213.8184
2023-05-14T05:59:38.090Z,10823.2725
2023-05-14T06:00:39.076Z,9964.3633
2023-05-14T06:01:40.286Z,9233.8184
2023-05-14T06:03:45.268Z,8025.9131
2023-05-14T06:04:44.990Z,7269.5239
2023-05-14T06:05:45.210Z,6543.6362
2023-05-14T06:06:45.958Z,5823.6362
2023-05-14T06:07:46.692Z,5328.3638
2023-05-14T06:09:46.895Z,4602.5454
2023-05-14T06:10:47.634Z,4297.2729
2023-05-14T06:27:15.538Z,3505.3914
2023-05-14T06:28:16.231Z,3243.6365
2023-05-14T06:29:17.034Z,3159.8181
2023-05-14T06:31:20.477Z,3583.3044
2023-05-14T06:32:21.403Z,4374.5454
2023-05-14T06:33:21.586Z,5686.3638
2023-05-14T06:34:22.282Z,6601.2729
2023-05-14T06:35:23.002Z,6627.6362
2023-05-14T06:38:26.354Z,5995.1304
2023-05-14T06:39:27.021Z,5562.7271
2023-05-14T06:40:27.786Z,5748.3638
2023-05-14T06:41:27.848Z,6467.0908
2023-05-14T06:42:27.941Z,7296.9092
2023-05-14T06:43:45.739Z,7646.0000
2023-05-14T06:44:29.610Z,7379.0000
2023-05-14T06:45:33.189Z,7355.5791
2023-05-14T06:46:33.415Z,7421.8184
2023-05-14T06:47:34.267Z,7644.9092
2023-05-14T06:48:35.174Z,7905.4546
2023-05-14T06:50:35.806Z,7800.3638
2023-05-14T06:52:37.487Z,8817.8184
2023-05-14T07:03:11.796Z,9961.5654
2023-05-14T07:03:53.650Z,10454.4004
2023-05-14T07:04:54.187Z,10034.5459
2023-05-14T07:05:54.382Z,9235.2725
2023-05-14T07:06:55.078Z,8723.8184
2023-05-14T07:07:55.220Z,8336.0000
2023-05-14T07:08:55.897Z,8340.5459
2023-05-14T07:09:56.678Z,8271.4541
2023-05-14T07:10:56.759Z,8253.4541
2023-05-14T07:11:56.840Z,8046.3638
2023-05-14T07:12:57.514Z,8554.7275
2023-05-14T07:13:58.249Z,8970.7275
2023-05-14T07:14:58.367Z,8618.7275
2023-05-14T07:15:58.466Z,8750.3633
2023-05-14T07:16:58.639Z,9053.0908
2023-05-14T07:17:59.423Z,9855.2725
2023-05-14T07:18:59.557Z,9172.0000
2023-05-14T07:20:00.294Z,7994.7271
2023-05-14T07:21:00.427Z,7883.8184
2023-05-14T07:22:01.155Z,9087.6367
2023-05-14T07:23:01.233Z,10039.2725
2023-05-14T07:24:01.315Z,9865.4541
2023-05-14T07:25:02.123Z,9585.0908
2023-05-14T07:26:02.209Z,9882.5459
2023-05-14T07:27:03.009Z,11321.8184
2023-05-14T07:28:03.739Z,12856.7275
2023-05-14T07:29:04.594Z,14530.3633
2023-05-14T07:31:05.947Z,20839.2734
2023-05-14T07:32:06.034Z,21079.2734
2023-05-14T07:33:06.813Z,24363.6367
2023-05-14T07:34:07.707Z,26971.6367
2023-05-14T07:35:07.830Z,24645.8184
2023-05-14T07:36:08.546Z,22885.8184
2023-05-14T07:37:08.626Z,22768.0000
2023-05-14T07:38:09.422Z,20740.3633
2023-05-14T07:39:09.512Z,17373.0918
2023-05-14T07:40:10.290Z,16798.5449
2023-05-14T07:41:10.409Z,16448.0000
2023-05-14T07:42:10.448Z,15115.6367
2023-05-14T07:43:10.544Z,17298.9082
2023-05-14T07:44:10.640Z,22286.5449
2023-05-14T07:45:10.932Z,26097.4551
2023-05-14T07:46:11.105Z,26660.3633
2023-05-14T07:47:11.704Z,29064.7266
2023-05-14T07:48:12.186Z,28561.4551
2023-05-14T07:49:13.092Z,27898.1816
2023-05-14T07:50:14.341Z,31966.5449
2023-05-14T07:51:16.186Z,31274.1816
2023-05-14T07:52:23.281Z,34615.2734
2023-05-14T08:00:28.678Z,32971.6367
2023-05-14T08:01:28.870Z,19115.6367
2023-05-14T08:02:29.016Z,18901.8184
2023-05-14T08:03:42.442Z,20830.5449
2023-05-14T08:04:31.708Z,22341.3340
2023-05-14T08:05:31.786Z,24651.6367
2023-05-14T08:06:32.517Z,29310.5449
2023-05-14T08:07:35.159Z,32622.5449
2023-05-14T08:08:35.259Z,29198.5449
2023-05-14T08:09:35.336Z,23076.3633
2023-05-14T08:10:36.187Z,21040.0000
2023-05-14T08:11:36.332Z,22215.2734
2023-05-14T08:12:36.444Z,27626.1816
2023-05-14T08:13:37.206Z,33796.3633
2023-05-14T08:14:38.063Z,30878.5449
2023-05-14T08:15:38.155Z,27985.4551
2023-05-14T08:16:38.887Z,21834.1816
2023-05-14T08:17:39.045Z,16107.6367
2023-05-14T08:19:40.555Z,18885.8184
2023-05-14T08:20:40.640Z,24592.0000
2023-05-14T08:21:41.484Z,39288.7266
2023-05-14T08:22:41.578Z,43608.7266
2023-05-14T08:23:42.554Z,41137.4531
2023-05-14T08:24:42.654Z,46008.7266
2023-05-14T08:25:42.802Z,36829.0898
2023-05-14T08:26:42.866Z,24010.1816
2023-05-14T08:27:42.983Z,20193.4551
2023-05-14T08:28:43.931Z,20861.0918
2023-05-14T08:29:44.030Z,22093.0918
2023-05-14T08:30:44.801Z,22272.0000
2023-05-14T08:31:44.875Z,23252.3633
2023-05-14T08:32:45.579Z,23258.1816
2023-05-14T08:33:47.035Z,23793.4551
2023-05-14T08:34:48.510Z,23317.8184
2023-05-14T08:35:49.252Z,22228.3633
2023-05-14T08:36:53.667Z,20426.1816
2023-05-14T08:40:54.148Z,21162.1816
2023-05-14T08:41:55.161Z,23636.3633
2023-05-14T08:42:55.497Z,23786.1816
2023-05-14T08:43:56.504Z,24535.2734
2023-05-14T08:44:56.840Z,26456.7266
2023-05-14T08:45:57.664Z,27485.0918
2023-05-14T08:46:58.555Z,29261.0918
2023-05-14T08:47:59.656Z,30148.3633
2023-05-14T08:49:00.579Z,31192.7266
2023-05-14T08:50:01.559Z,31895.2734
2023-05-14T08:51:02.149Z,34040.7266
2023-05-14T08:52:03.603Z,37443.1992
2023-05-14T08:53:03.748Z,40628.3633
2023-05-14T08:54:05.585Z,37405.0898
2023-05-14T08:55:06.607Z,34698.1836
2023-05-14T08:56:07.013Z,33796.3633
2023-05-14T08:57:07.157Z,34007.2734
2023-05-14T08:58:20.974Z,35006.3984
2023-05-14T08:59:21.082Z,37326.5469
2023-05-14T09:00:21.316Z,40420.3633
2023-05-14T09:01:21.734Z,74689.4531
2023-05-14T09:02:22.847Z,50781.0898
2023-05-14T09:03:23.349Z,74693.8203
2023-05-14T09:04:23.544Z,92992.0000
2023-05-14T09:05:24.482Z,95722.1797
2023-05-14T09:06:24.765Z,89472.0000
2023-05-14T09:07:25.273Z,90267.6328
2023-05-14T09:08:28.866Z,60670.5469
2023-05-14T09:13:32.857Z,45472.0000
2023-05-14T09:14:33.006Z,82715.6328
2023-05-14T09:15:33.964Z,38801.4531
2023-05-14T09:16:34.747Z,29441.4551
2023-05-14T09:17:35.426Z,28231.2734
2023-05-14T09:18:36.223Z,26730.1816
2023-05-14T09:19:36.327Z,24112.0000
2023-05-14T09:20:37.074Z,23058.9082
2023-05-14T09:21:37.203Z,24772.3633
2023-05-14T09:22:58.334Z,27386.1816
2023-05-14T09:23:40.532Z,26658.1328
2023-05-14T09:24:41.022Z,24126.5449
2023-05-14T09:25:41.869Z,23502.5449
2023-05-14T09:26:41.994Z,26898.9082
2023-05-14T09:27:42.118Z,25080.7266
2023-05-14T09:28:42.236Z,22386.9082
2023-05-14T09:29:42.406Z,22573.0918
2023-05-14T09:30:42.558Z,22158.5449
2023-05-14T09:31:43.501Z,19978.1816
2023-05-14T09:32:44.399Z,18544.0000
2023-05-14T09:33:44.889Z,18183.2734
2023-05-14T09:34:45.466Z,18548.3633
2023-05-14T09:35:45.661Z,20285.0918
2023-05-14T09:36:46.378Z,22629.8184
2023-05-14T09:37:46.673Z,23650.9082
2023-05-14T09:38:46.935Z,25822.5449
2023-05-14T09:39:47.831Z,26365.0918
2023-05-14T09:40:48.181Z,26554.1816
2023-05-14T09:41:48.302Z,31749.8184
2023-05-14T09:42:48.990Z,35114.1836
2023-05-14T09:43:49.922Z,31899.6367
2023-05-14T09:45:50.709Z,37940.3633
2023-05-14T09:46:51.458Z,34747.6367
2023-05-14T09:48:51.962Z,44608.0000
2023-05-14T09:49:52.095Z,41383.2734
2023-05-14T09:50:52.426Z,49781.8164
2023-05-14T09:51:53.299Z,47840.0000
2023-05-14T09:52:54.120Z,40573.0898
2023-05-14T09:53:54.466Z,41166.5469
2023-05-14T09:54:55.454Z,40013.0898
2023-05-14T09:55:55.663Z,34053.8164
2023-05-14T09:56:55.962Z,29771.6367
2023-05-14T09:57:57.150Z,29658.1816
2023-05-14T09:58:57.274Z,32494.5449
2023-05-14T09:59:57.453Z,33789.0898
2023-05-14T10:00:57.711Z,32612.3633
2023-05-14T10:01:57.884Z,31278.5449
2023-05-14T10:02:58.023Z,29079.2734
2023-05-14T10:04:02.562Z,27312.0000
2023-05-14T10:10:08.921Z,22326.2617
2023-05-14T10:11:09.047Z,21080.7266
2023-05-14T10:12:09.696Z,22804.3633
2023-05-14T10:13:10.263Z,28443.6367
2023-05-14T10:14:11.596Z,31714.9082
2023-05-14T10:15:12.328Z,31003.6367
2023-05-14T10:16:12.927Z,27147.6367
2023-05-14T10:17:13.188Z,26213.8184
2023-05-14T10:18:13.355Z,29346.9082
2023-05-14T10:19:14.020Z,32401.4551
2023-05-14T10:20:14.177Z,35026.9102
2023-05-14T10:21:14.287Z,35525.8164
2023-05-14T10:22:14.959Z,32901.8164
2023-05-14T10:23:16.284Z,31143.2734
2023-05-14T10:24:16.440Z,33710.5469
2023-05-14T10:25:16.561Z,35248.0000
2023-05-14T10:26:17.596Z,37243.6367
2023-05-14T10:27:17.736Z,33944.7266
2023-05-14T10:28:17.900Z,33646.5469
2023-05-14T10:29:18.054Z,33597.0898
2023-05-14T10:30:18.200Z,34525.0898
2023-05-14T10:31:18.414Z,33723.6367
2023-05-14T10:32:18.621Z,32625.4551
2023-05-14T10:33:18.868Z,31658.1816
2023-05-14T10:34:19.056Z,31306.1816
2023-05-14T10:35:20.009Z,31674.1816
2023-05-14T10:36:20.136Z,31812.3633
2023-05-14T10:37:20.673Z,31745.4551
2023-05-14T10:38:20.771Z,31988.3633
2023-05-14T10:39:21.869Z,32808.7266
2023-05-14T10:40:22.927Z,33861.8164
2023-05-14T10:41:23.382Z,35348.3633
2023-05-14T10:42:23.561Z,35610.1836
2023-05-14T10:43:23.638Z,35022.5469
2023-05-14T10:44:23.872Z,35645.0898
2023-05-14T10:45:24.421Z,34798.5469
2023-05-14T10:46:24.655Z,37149.0898
2023-05-14T10:47:24.794Z,34688.0000
2023-05-14T10:48:25.080Z,35370.1836
2023-05-14T10:49:39.718Z,35393.4531
2023-05-14T10:50:26.972Z,35347.1992
2023-05-14T10:51:27.786Z,35664.0000
2023-05-14T10:52:27.914Z,35490.9102
2023-05-14T10:53:28.015Z,35758.5469
2023-05-14T10:54:29.126Z,35739.6367
2023-05-14T10:55:29.316Z,36378.1836
2023-05-14T10:56:29.434Z,35810.9102
2023-05-14T10:57:30.260Z,35118.5469
2023-05-14T10:58:30.420Z,37058.9102
2023-05-14T10:59:31.190Z,37172.3633
2023-05-14T11:00:31.359Z,38474.1836
2023-05-14T11:01:31.494Z,33598.5469
2023-05-14T11:02:32.263Z,32901.8164
2023-05-14T11:03:33.125Z,54074.1836
2023-05-14T11:04:33.425Z,101333.8203
2023-05-14T11:05:33.541Z,76494.5469
2023-05-14T11:06:33.682Z,93082.1797
2023-05-14T11:07:33.787Z,84231.2734
2023-05-14T11:08:33.948Z,106167.2734
2023-05-14T11:09:34.685Z,120426.1797
2023-05-14T11:10:34.889Z,101448.7266
2023-05-14T11:11:35.716Z,99585.4531
2023-05-14T11:12:35.871Z,74558.5469
2023-05-14T11:13:36.002Z,53893.8164
2023-05-14T11:14:36.140Z,64804.3633
2023-05-14T11:15:36.344Z,38222.5469
2023-05-14T11:16:37.185Z,30669.0918
2023-05-14T11:17:37.405Z,26376.7266
2023-05-14T11:18:38.274Z,22538.1816
2023-05-14T11:19:38.395Z,19421.0918
2023-05-14T11:20:38.520Z,16272.0000
2023-05-14T11:21:39.527Z,13313.2725
2023-05-14T11:22:39.681Z,11604.5459
2023-05-14T11:23:40.003Z,11258.3633
2023-05-14T11:24:40.191Z,11585.0908
2023-05-14T11:25:40.803Z,11942.7275
2023-05-14T11:26:41.011Z,12296.5459
2023-05-14T11:27:41.813Z,12597.6367
2023-05-14T11:28:41.949Z,13103.6367
2023-05-14T11:29:42.734Z,13542.0000
2023-05-14T11:30:43.755Z,13942.5459
2023-05-14T11:33:48.005Z,15614.6084
2023-05-14T11:34:48.147Z,16608.0000
2023-05-14T11:35:48.302Z,17460.3633
2023-05-14T11:36:48.454Z,17969.4551
2023-05-14T11:37:50.898Z,18448.0000
2023-05-14T11:38:51.054Z,19233.4551
2023-05-14T11:39:58.359Z,20474.1816
2023-05-14T11:42:10.508Z,23503.3047
2023-05-14T11:42:59.144Z,24466.8242
2023-05-14T11:43:59.992Z,24136.7266
2023-05-14T11:45:00.755Z,23422.5449
2023-05-14T11:46:00.960Z,22848.0000
2023-05-14T11:47:01.793Z,21745.4551
2023-05-14T11:48:01.946Z,20157.0918
2023-05-14T11:49:02.723Z,19809.4551
2023-05-14T11:50:19.972Z,19154.9082
2023-05-14T11:51:42.306Z,17419.1992
2023-05-14T11:52:43.341Z,16882.9082
2023-05-14T11:53:44.797Z,17463.2734
2023-05-14T11:54:45.334Z,19102.5449
2023-05-14T11:55:45.674Z,21109.8184
2023-05-14T11:57:03.262Z,23450.1816
2023-05-14T11:57:47.835Z,26450.0000
2023-05-14T11:58:48.623Z,28657.4551
2023-05-14T11:59:48.767Z,30733.0918
2023-05-14T12:00:50.053Z,32357.8184
2023-05-14T12:01:50.993Z,33329.4531
2023-05-14T12:02:51.214Z,33441.4531
2023-05-14T12:03:52.325Z,33092.3633
2023-05-14T12:04:53.831Z,30250.1816
2023-05-14T12:05:54.602Z,24107.6367
2023-05-14T12:06:54.948Z,16516.9082
2023-05-14T12:07:55.496Z,10327.4541
2023-05-14T12:08:55.948Z,7090.3638
2023-05-14T12:09:56.169Z,5467.4546
2023-05-14T12:10:56.447Z,4787.6362
2023-05-14T12:11:56.906Z,4493.2729
2023-05-14T12:12:57.314Z,4239.8184
2023-05-14T12:13:57.709Z,3864.9092
2023-05-14T12:14:58.050Z,3762.3635
2023-05-14T12:15:58.262Z,4024.0000
2023-05-14T12:16:58.645Z,4405.8184
2023-05-14T12:18:59.550Z,4438.0000
2023-05-14T12:19:59.737Z,4263.2729
2023-05-14T12:21:01.497Z,4046.5454
2023-05-14T12:22:02.291Z,4008.1819
2023-05-14T12:23:02.406Z,4408.1816
2023-05-14T12:24:03.345Z,4838.9092
2023-05-14T12:25:04.377Z,5417.4546
2023-05-14T12:26:04.572Z,6050.5454
2023-05-14T12:27:05.635Z,6545.6362
2023-05-14T12:28:05.979Z,6998.1816
2023-05-14T12:29:06.331Z,7606.0000
2023-05-14T12:31:07.389Z,8763.2383
2023-05-14T12:32:08.842Z,8924.5459
2023-05-14T12:33:09.710Z,9072.1816
2023-05-14T12:34:09.856Z,9157.2725
2023-05-14T12:35:10.631Z,9096.0000
2023-05-14T12:36:21.188Z,8951.2725
2023-05-14T12:37:13.912Z,8853.4004
2023-05-14T12:38:15.020Z,8877.6367
2023-05-14T12:39:15.466Z,8852.0000
2023-05-14T12:40:15.625Z,8973.2725
2023-05-14T12:41:15.960Z,9124.5459
2023-05-14T12:42:17.652Z,9618.1816
2023-05-14T12:43:17.818Z,10702.7275
2023-05-14T12:44:17.951Z,11439.4541
2023-05-14T12:45:18.068Z,12280.9092
2023-05-14T12:46:18.193Z,13244.3633
2023-05-14T12:47:18.423Z,14207.0908
2023-05-14T12:48:18.574Z,15214.0000
2023-05-14T12:49:18.728Z,16139.6367
2023-05-14T12:50:19.496Z,16778.1816
2023-05-14T12:52:36.124Z,17687.2734
2023-05-14T12:53:24.047Z,18004.8008
2023-05-14T13:03:38.265Z,13307.2725
2023-05-14T13:04:38.659Z,13005.6367
2023-05-14T13:05:41.422Z,12941.0908
2023-05-14T13:09:44.265Z,14872.0000
2023-05-14T13:10:44.421Z,15440.0000
2023-05-14T13:11:44.563Z,15844.3633
2023-05-14T13:12:44.692Z,16309.8184
2023-05-14T13:13:44.834Z,16827.6367
2023-05-14T13:14:44.982Z,17540.3633
2023-05-14T13:15:45.182Z,18448.0000
2023-05-14T13:16:45.408Z,19474.9082
2023-05-14T13:17:45.682Z,20484.3633
2023-05-14T13:18:45.846Z,21560.7266
2023-05-14T13:19:45.968Z,22589.0918
2023-05-14T13:20:46.127Z,23553.4551
2023-05-14T13:21:46.272Z,24439.2734
2023-05-14T13:22:46.392Z,25144.7266
2023-05-14T13:23:46.532Z,25646.5449
2023-05-14T13:24:46.887Z,26050.9082
2023-05-14T13:25:49.671Z,26376.7266